createdAt,value
2022-08-03T00:00:29.325Z,99503.03
2022-08-03T00:02:56.703Z,99517.78
2022-08-03T00:05:23.781Z,99515.22
2022-08-03T00:07:50.817Z,99495.13
2022-08-03T00:10:17.969Z,99504.75
2022-08-03T00:12:45.098Z,99518.28
2022-08-03T00:15:16.385Z,99509.59
2022-08-03T00:17:53.014Z,99501.84
2022-08-03T00:20:21.853Z,99519.69
2022-08-03T00:22:49.910Z,99514.28
2022-08-03T00:25:17.015Z,99510.91
2022-08-03T00:27:44.107Z,99496.34
2022-08-03T00:30:11.377Z,99517.53
2022-08-03T00:32:38.846Z,99522.16
2022-08-03T00:35:18.260Z,99494.34
2022-08-03T00:37:59.403Z,99518.78
2022-08-03T00:40:26.664Z,99503.91
2022-08-03T00:43:00.451Z,99513.44
2022-08-03T00:45:30.716Z,99516.22
2022-08-03T00:47:58.664Z,99517.06
2022-08-03T00:50:27.703Z,99511.84
2022-08-03T00:52:58.494Z,99494.47
2022-08-03T00:55:26.003Z,99511.09
2022-08-03T00:57:53.835Z,99517.47
2022-08-03T01:00:24.748Z,99508.09
2022-08-03T01:02:52.030Z,99478.06
2022-08-03T01:05:19.964Z,99502.59
2022-08-03T01:07:56.265Z,99514.47
2022-08-03T01:10:31.532Z,99501.44
2022-08-03T01:14:03.611Z,99509.00
2022-08-03T01:16:37.177Z,99500.56
2022-08-03T01:19:35.238Z,99506.13
2022-08-03T01:22:35.692Z,99487.03
2022-08-03T01:25:23.522Z,99497.59
2022-08-03T01:28:13.780Z,99478.44
2022-08-03T01:30:44.029Z,99497.19
2022-08-03T01:33:22.230Z,99498.41
2022-08-03T01:35:53.385Z,99503.03
2022-08-03T01:38:33.786Z,99493.28
2022-08-03T01:41:12.298Z,99479.69
2022-08-03T01:44:26.756Z,99504.22
2022-08-03T01:46:31.244Z,99503.34
2022-08-03T01:48:59.840Z,99484.28
2022-08-03T01:51:58.687Z,99492.22
2022-08-03T01:54:17.580Z,99516.72
2022-08-03T01:56:46.701Z,99502.47
2022-08-03T01:59:16.741Z,99474.69
2022-08-03T02:02:28.565Z,99496.56
2022-08-03T02:04:32.680Z,99514.78
2022-08-03T02:07:03.352Z,99507.56
2022-08-03T02:09:31.987Z,99499.09
2022-08-03T02:12:00.947Z,99509.44
2022-08-03T02:14:28.902Z,99519.88
2022-08-03T02:16:57.627Z,99516.16
2022-08-03T02:19:25.470Z,99486.97
2022-08-03T02:21:56.409Z,99512.19
2022-08-03T02:24:29.557Z,99497.53
2022-08-03T02:26:57.780Z,99479.25
2022-08-03T02:29:39.401Z,99519.63
2022-08-03T02:32:17.454Z,99516.16
2022-08-03T02:34:48.075Z,99504.09
2022-08-03T02:37:18.494Z,99509.44
2022-08-03T02:39:48.018Z,99492.22
2022-08-03T02:42:19.930Z,99523.44
2022-08-03T02:44:50.316Z,99508.63
2022-08-03T02:47:21.153Z,99525.84
2022-08-03T02:49:52.351Z,99525.75
2022-08-03T02:52:23.517Z,99510.56
2022-08-03T02:54:55.161Z,99520.78
2022-08-03T02:57:25.974Z,99492.94
2022-08-03T02:59:54.349Z,99513.81
2022-08-03T03:02:22.159Z,99520.69
2022-08-03T03:05:53.654Z,99509.72
2022-08-03T03:07:51.311Z,99522.03
2022-08-03T03:10:23.215Z,99531.56
2022-08-03T03:12:56.313Z,99528.00
2022-08-03T03:15:29.270Z,99527.06
2022-08-03T03:17:57.265Z,99526.13
2022-08-03T03:20:29.826Z,99527.06
2022-08-03T03:23:01.258Z,99512.31
2022-08-03T03:25:33.371Z,99525.91
2022-08-03T03:28:01.587Z,99537.22
2022-08-03T03:30:30.139Z,99552.13
2022-08-03T03:32:59.041Z,99547.94
2022-08-03T03:35:27.776Z,99552.34
2022-08-03T03:37:55.230Z,99518.34
2022-08-03T03:40:22.833Z,99535.44
2022-08-03T03:42:50.559Z,99549.47
2022-08-03T03:45:18.911Z,99540.75
2022-08-03T03:47:46.224Z,99547.31
2022-08-03T03:50:15.564Z,99522.03
2022-08-03T03:52:42.700Z,99546.75
2022-08-03T03:55:09.939Z,99559.00
2022-08-03T03:57:38.323Z,99555.34
2022-08-03T04:00:06.443Z,99558.94
2022-08-03T04:02:33.597Z,99567.66
2022-08-03T04:05:19.028Z,99547.78
2022-08-03T04:08:20.597Z,99564.38
2022-08-03T04:11:01.527Z,99570.28
2022-08-03T04:14:03.873Z,99566.41
2022-08-03T04:16:35.328Z,99564.47
2022-08-03T04:19:08.354Z,99562.41
2022-08-03T04:21:44.891Z,99565.84
2022-08-03T04:24:13.740Z,99575.25
2022-08-03T04:26:43.363Z,99570.28
2022-08-03T04:29:12.173Z,99546.97
2022-08-03T04:31:40.320Z,99550.00
2022-08-03T04:34:07.962Z,99541.72
2022-08-03T04:36:44.910Z,99543.22
2022-08-03T04:39:16.830Z,99549.81
2022-08-03T04:42:07.613Z,99568.31
2022-08-03T04:44:37.960Z,99546.09
2022-08-03T04:47:05.163Z,99567.69
2022-08-03T04:49:32.803Z,99543.69
2022-08-03T04:52:00.075Z,99565.91
2022-08-03T04:54:27.154Z,99565.13
2022-08-03T04:56:54.252Z,99571.78
2022-08-03T04:59:21.305Z,99539.44
2022-08-03T05:01:48.419Z,99568.63
2022-08-03T05:04:15.437Z,99560.50
2022-08-03T05:06:48.174Z,99550.16
2022-08-03T05:09:46.113Z,99563.28
2022-08-03T05:12:08.167Z,99565.66
2022-08-03T05:14:37.781Z,99562.38
2022-08-03T05:17:09.314Z,99539.47
2022-08-03T05:19:36.397Z,99563.72
2022-08-03T05:22:03.470Z,99564.84
2022-08-03T05:24:30.602Z,99564.25
2022-08-03T05:26:57.649Z,99563.72
2022-08-03T05:29:24.661Z,99560.44
2022-08-03T05:31:51.858Z,99550.91
2022-08-03T05:34:18.884Z,99556.22
2022-08-03T05:36:46.076Z,99563.44
2022-08-03T05:39:13.163Z,99572.78
2022-08-03T05:41:40.576Z,99573.31
2022-08-03T05:44:07.571Z,99541.56
2022-08-03T05:46:34.843Z,99554.13
2022-08-03T05:49:02.020Z,99556.00
2022-08-03T05:51:29.184Z,99561.03
2022-08-03T05:53:56.252Z,99538.19
2022-08-03T05:56:27.579Z,99564.19
2022-08-03T05:58:54.948Z,99551.28
2022-08-03T06:01:22.712Z,99563.19
2022-08-03T06:03:51.210Z,99559.19
2022-08-03T06:06:18.763Z,99561.06
2022-08-03T06:08:46.836Z,99553.22
2022-08-03T06:11:14.034Z,99553.56
2022-08-03T06:13:41.769Z,99546.19
2022-08-03T06:16:09.049Z,99558.00
2022-08-03T06:18:36.863Z,99553.72
2022-08-03T06:21:09.487Z,99560.47
2022-08-03T06:23:53.180Z,99522.25
2022-08-03T06:26:21.040Z,99532.88
2022-08-03T06:28:53.081Z,99533.13
2022-08-03T06:31:24.265Z,99552.81
2022-08-03T06:34:35.121Z,99552.75
2022-08-03T06:36:39.464Z,99532.75
2022-08-03T06:39:06.834Z,99549.59
2022-08-03T06:41:38.097Z,99551.66
2022-08-03T06:44:12.521Z,99548.16
2022-08-03T06:46:40.043Z,99552.03
2022-08-03T06:49:08.209Z,99556.78
2022-08-03T06:52:03.051Z,99559.41
2022-08-03T06:54:25.201Z,99560.84
2022-08-03T06:56:52.655Z,99561.13
2022-08-03T07:00:06.528Z,99560.72
2022-08-03T07:02:07.589Z,99559.16
2022-08-03T07:04:34.834Z,99563.50
2022-08-03T07:07:02.088Z,99561.13
2022-08-03T07:09:29.232Z,99541.56
2022-08-03T07:11:57.251Z,99555.28
2022-08-03T07:14:24.360Z,99566.13
2022-08-03T07:16:51.422Z,99561.47
2022-08-03T07:19:18.421Z,99562.28
2022-08-03T07:21:46.030Z,99575.81
2022-08-03T07:24:13.023Z,99561.22
2022-08-03T07:26:40.085Z,99559.78
2022-08-03T07:29:11.901Z,99547.03
2022-08-03T07:31:42.587Z,99565.78
2022-08-03T07:34:09.660Z,99561.41
2022-08-03T07:36:36.743Z,99569.47
2022-08-03T07:39:16.527Z,99561.47
2022-08-03T07:41:46.156Z,99568.50
2022-08-03T07:44:13.763Z,99572.78
2022-08-03T07:46:40.827Z,99537.53
2022-08-03T07:49:07.989Z,99571.22
2022-08-03T07:51:35.281Z,99577.19
2022-08-03T07:54:02.892Z,99579.03
2022-08-03T07:56:30.063Z,99573.84
2022-08-03T07:58:57.532Z,99570.16
2022-08-03T08:01:24.641Z,99560.16
2022-08-03T08:03:52.621Z,99572.25
2022-08-03T08:06:21.402Z,99579.84
2022-08-03T08:08:48.698Z,99591.31
2022-08-03T08:11:15.813Z,99566.47
2022-08-03T08:13:42.878Z,99563.19
2022-08-03T08:16:09.936Z,99565.81
2022-08-03T08:18:37.062Z,99579.78
2022-08-03T08:21:04.213Z,99579.94
2022-08-03T08:23:41.751Z,99576.34
2022-08-03T08:26:10.608Z,99553.34
2022-08-03T08:28:37.742Z,99572.84
2022-08-03T08:31:05.131Z,99572.34
2022-08-03T08:33:54.345Z,99523.63
2022-08-03T08:36:19.717Z,99580.63
2022-08-03T08:38:46.887Z,99591.22
2022-08-03T08:41:15.445Z,99587.25
2022-08-03T08:43:42.861Z,99579.84
2022-08-03T08:46:23.474Z,99584.16
2022-08-03T08:48:53.622Z,99583.25
2022-08-03T08:51:21.542Z,99596.69
2022-08-03T08:53:52.325Z,99581.44
2022-08-03T08:56:22.945Z,99591.00
2022-08-03T08:58:54.638Z,99595.09
2022-08-03T09:01:22.037Z,99597.91
2022-08-03T09:03:49.519Z,99594.59
2022-08-03T09:06:17.334Z,99558.91
2022-08-03T09:08:44.362Z,99576.41
2022-08-03T09:11:12.216Z,99600.78
2022-08-03T09:13:39.463Z,99581.59
2022-08-03T09:16:15.506Z,99589.84
2022-08-03T09:18:48.346Z,99603.06
2022-08-03T09:21:32.808Z,99606.13
2022-08-03T09:24:04.824Z,99599.09
2022-08-03T09:26:35.139Z,99594.56
2022-08-03T09:29:11.283Z,99608.19
2022-08-03T09:31:44.874Z,99593.88
2022-08-03T09:34:16.401Z,99604.53
2022-08-03T09:36:49.167Z,99601.19
2022-08-03T09:39:40.748Z,99599.25
2022-08-03T09:42:14.743Z,99608.28
2022-08-03T09:44:44.708Z,99589.13
2022-08-03T09:47:13.373Z,99588.97
2022-08-03T09:49:42.023Z,99592.50
2022-08-03T09:52:31.713Z,99604.19
2022-08-03T09:56:05.191Z,99601.97
2022-08-03T09:58:09.596Z,99586.44
2022-08-03T10:00:52.926Z,99599.69
2022-08-03T10:03:20.131Z,99591.03
2022-08-03T10:05:47.210Z,99599.78
2022-08-03T10:08:15.829Z,99600.56
2022-08-03T10:10:44.913Z,99585.78
2022-08-03T10:13:14.607Z,99598.38
2022-08-03T10:16:22.824Z,99582.78
2022-08-03T10:18:29.138Z,99596.25
2022-08-03T10:21:03.386Z,99591.53
2022-08-03T10:23:38.157Z,99560.63
2022-08-03T10:26:08.296Z,99601.25
2022-08-03T10:28:44.471Z,99581.31
2022-08-03T10:31:14.243Z,99610.22
2022-08-03T10:33:51.181Z,99611.97
2022-08-03T10:36:24.205Z,99598.00
2022-08-03T10:38:53.447Z,99602.72
2022-08-03T10:41:22.303Z,99603.28
2022-08-03T10:43:55.165Z,99601.56
2022-08-03T10:46:22.231Z,99604.22
2022-08-03T10:48:50.798Z,99592.94
2022-08-03T10:51:19.908Z,99614.69
2022-08-03T10:53:54.941Z,99614.97
2022-08-03T10:56:54.245Z,99611.84
2022-08-03T10:59:40.140Z,99614.34
2022-08-03T11:02:09.994Z,99603.72
2022-08-03T11:04:37.041Z,99602.66
2022-08-03T11:07:25.962Z,99607.25
2022-08-03T11:09:56.416Z,99611.03
2022-08-03T11:12:31.318Z,99609.38
2022-08-03T11:15:05.612Z,99605.50
2022-08-03T11:17:46.773Z,99608.78
2022-08-03T11:20:51.562Z,99605.88
2022-08-03T11:24:04.989Z,99602.28
2022-08-03T11:26:27.686Z,99607.50
2022-08-03T11:29:27.622Z,99603.16
2022-08-03T11:31:54.952Z,99618.66
2022-08-03T11:34:22.360Z,99616.09
2022-08-03T11:37:22.669Z,99623.88
2022-08-03T11:39:53.125Z,99614.84
2022-08-03T11:42:23.402Z,99620.72
2022-08-03T11:44:51.606Z,99602.84
2022-08-03T11:47:24.180Z,99619.44
2022-08-03T11:49:54.107Z,99616.53
2022-08-03T11:52:26.795Z,99619.97
2022-08-03T11:54:56.860Z,99614.28
2022-08-03T11:59:01.706Z,99622.78
2022-08-03T12:00:23.492Z,99621.16
2022-08-03T12:03:05.864Z,99594.88
2022-08-03T12:05:35.749Z,99612.06
2022-08-03T12:08:06.705Z,99574.38
2022-08-03T12:10:34.840Z,99613.25
2022-08-03T12:13:06.056Z,99585.69
2022-08-03T12:15:54.125Z,99600.44
2022-08-03T12:18:23.426Z,99578.47
2022-08-03T12:20:52.342Z,99598.94
2022-08-03T12:23:20.315Z,99600.19
2022-08-03T12:25:49.512Z,99566.31
2022-08-03T12:28:36.451Z,99608.91
2022-08-03T12:31:09.697Z,99592.59
2022-08-03T12:34:05.143Z,99604.31
2022-08-03T12:36:35.320Z,99599.31
2022-08-03T12:39:07.675Z,99598.06
2022-08-03T12:41:40.914Z,99579.72
2022-08-03T12:44:09.738Z,99611.34
2022-08-03T12:46:42.702Z,99603.44
2022-08-03T12:49:19.149Z,99601.41
2022-08-03T12:51:46.196Z,99604.50
2022-08-03T12:54:26.341Z,99564.97
2022-08-03T12:57:04.086Z,99609.69
2022-08-03T12:59:52.814Z,99608.28
2022-08-03T13:02:26.354Z,99604.53
2022-08-03T13:04:54.866Z,99604.63
2022-08-03T13:07:23.000Z,99608.28
2022-08-03T13:09:55.482Z,99586.06
2022-08-03T13:12:24.673Z,99578.09
2022-08-03T13:14:57.206Z,99604.91
2022-08-03T13:17:24.902Z,99612.38
2022-08-03T13:19:53.019Z,99598.56
2022-08-03T13:22:22.888Z,99604.59
2022-08-03T13:24:52.408Z,99600.59
2022-08-03T13:28:01.812Z,99602.09
2022-08-03T13:30:08.790Z,99587.16
2022-08-03T13:32:36.203Z,99592.19
2022-08-03T13:35:04.224Z,99597.31
2022-08-03T13:37:32.536Z,99600.09
2022-08-03T13:40:02.983Z,99585.84
2022-08-03T13:42:33.198Z,99594.84
2022-08-03T13:45:01.521Z,99594.75
2022-08-03T13:47:31.257Z,99597.78
2022-08-03T13:50:01.258Z,99600.94
2022-08-03T13:52:36.421Z,99594.94
2022-08-03T13:55:06.204Z,99587.13
2022-08-03T13:58:04.252Z,99592.69
2022-08-03T14:00:27.921Z,99595.13
2022-08-03T14:03:10.813Z,99599.19
2022-08-03T14:05:41.767Z,99602.78
2022-08-03T14:08:09.419Z,99582.00
2022-08-03T14:10:38.582Z,99607.72
2022-08-03T14:13:06.360Z,99596.97
2022-08-03T14:15:37.716Z,99588.38
2022-08-03T14:18:12.713Z,99606.19
2022-08-03T14:20:50.236Z,99603.25
2022-08-03T14:23:21.795Z,99608.38
2022-08-03T14:25:51.774Z,99608.88
2022-08-03T14:28:23.330Z,99605.00
2022-08-03T14:30:56.106Z,99589.34
2022-08-03T14:33:23.530Z,99570.03
2022-08-03T14:35:51.265Z,99602.97
2022-08-03T14:38:18.730Z,99608.75
2022-08-03T14:40:46.499Z,99582.09
2022-08-03T14:43:14.085Z,99591.91
2022-08-03T14:45:41.604Z,99605.88
2022-08-03T14:50:31.075Z,99603.06
2022-08-03T14:50:56.879Z,99613.78
2022-08-03T14:53:24.449Z,99584.94
2022-08-03T14:55:53.471Z,99610.78
2022-08-03T14:58:25.470Z,99586.38
2022-08-03T15:00:54.729Z,99604.72
2022-08-03T15:03:26.214Z,99615.53
2022-08-03T15:05:55.858Z,99602.16
2022-08-03T15:08:23.774Z,99613.31
2022-08-03T15:10:51.571Z,99596.69
2022-08-03T15:13:22.983Z,99596.13
2022-08-03T15:15:50.145Z,99575.03
2022-08-03T15:18:17.621Z,99610.03
2022-08-03T15:20:46.671Z,99607.72
2022-08-03T15:23:16.153Z,99599.34
2022-08-03T15:26:04.057Z,99601.25
2022-08-03T15:28:32.656Z,99617.81
2022-08-03T15:31:01.047Z,99611.16
2022-08-03T15:33:28.819Z,99609.94
2022-08-03T15:35:57.115Z,99581.41
2022-08-03T15:38:26.213Z,99612.09
2022-08-03T15:40:54.849Z,99606.81
2022-08-03T15:43:25.378Z,99620.88
2022-08-03T15:46:12.751Z,99615.59
2022-08-03T15:48:40.572Z,99605.00
2022-08-03T15:51:08.619Z,99613.25
2022-08-03T15:53:36.220Z,99627.56
2022-08-03T15:56:10.041Z,99622.63
2022-08-03T15:59:03.155Z,99623.28
2022-08-03T16:01:27.080Z,99628.81
2022-08-03T16:03:54.113Z,99600.56
2022-08-03T16:06:34.825Z,99618.19
2022-08-03T16:09:05.815Z,99624.19
2022-08-03T16:11:51.655Z,99617.66
2022-08-03T16:14:32.481Z,99602.63
2022-08-03T16:17:03.997Z,99603.13
2022-08-03T16:19:31.153Z,99616.97
2022-08-03T16:21:58.524Z,99599.09
2022-08-03T16:24:27.934Z,99618.38
2022-08-03T16:26:56.182Z,99620.38
2022-08-03T16:29:23.792Z,99607.78
2022-08-03T16:31:52.278Z,99611.94
2022-08-03T16:34:20.558Z,99611.78
2022-08-03T16:36:47.812Z,99617.19
2022-08-03T16:39:15.025Z,99622.69
2022-08-03T16:42:00.719Z,99597.72
2022-08-03T16:44:30.801Z,99610.06
2022-08-03T16:46:58.967Z,99603.34
2022-08-03T16:49:54.245Z,99619.34
2022-08-03T16:52:13.349Z,99613.75
2022-08-03T16:54:40.890Z,99615.91
2022-08-03T16:57:56.559Z,99615.72
2022-08-03T16:59:55.296Z,99617.88
2022-08-03T17:02:26.267Z,99632.56
2022-08-03T17:04:56.038Z,99626.53
2022-08-03T17:07:23.825Z,99637.69
2022-08-03T17:09:57.441Z,99651.78
2022-08-03T17:12:27.068Z,99649.41
2022-08-03T17:14:54.843Z,99632.44
2022-08-03T17:17:37.671Z,99602.69
2022-08-03T17:20:20.298Z,99648.09
2022-08-03T17:23:03.311Z,99646.22
2022-08-03T17:26:01.736Z,99656.47
2022-08-03T17:28:48.253Z,99662.50
2022-08-03T17:31:23.168Z,99668.06
2022-08-03T17:34:01.359Z,99670.84
2022-08-03T17:36:54.091Z,99653.59
2022-08-03T17:39:30.895Z,99683.16
2022-08-03T17:42:30.615Z,99674.88
2022-08-03T17:44:56.397Z,99678.28
2022-08-03T17:47:23.703Z,99672.59
2022-08-03T17:49:57.124Z,99689.66
2022-08-03T17:52:33.457Z,99687.91
2022-08-03T17:55:50.353Z,99685.22
2022-08-03T18:01:04.531Z,99688.09
2022-08-03T18:03:58.262Z,99689.06
2022-08-03T18:06:31.919Z,99694.63
2022-08-03T18:09:04.841Z,99696.41
2022-08-03T18:11:54.728Z,99702.16
2022-08-03T18:14:38.408Z,99697.13
2022-08-03T18:17:10.195Z,99696.75
2022-08-03T18:20:03.559Z,99694.03
2022-08-03T18:22:27.666Z,99707.31
2022-08-03T18:25:00.448Z,99713.19
2022-08-03T18:27:42.810Z,99720.59
2022-08-03T18:30:15.433Z,99729.66
2022-08-03T18:32:43.858Z,99727.88
2022-08-03T18:35:53.726Z,99727.88
2022-08-03T18:38:18.841Z,99729.81
2022-08-03T18:43:46.530Z,99729.31
2022-08-03T18:46:36.025Z,99738.97
2022-08-03T18:49:14.858Z,99734.22
2022-08-03T18:51:47.129Z,99738.06
2022-08-03T18:57:38.018Z,99753.41
2022-08-03T19:00:15.754Z,99742.06
2022-08-03T19:02:56.068Z,99742.06
2022-08-03T19:05:53.784Z,99735.53
2022-08-03T19:08:20.049Z,99753.38
2022-08-03T19:11:00.764Z,99744.69
2022-08-03T19:13:44.452Z,99739.31
2022-08-03T19:16:38.741Z,99761.53
2022-08-03T19:19:10.426Z,99729.78
2022-08-03T19:21:41.798Z,99758.63
2022-08-03T19:24:10.365Z,99762.44
2022-08-03T19:26:39.731Z,99758.34
2022-08-03T19:29:11.368Z,99754.97
2022-08-03T19:31:59.527Z,99759.47
2022-08-03T19:34:30.094Z,99718.59
2022-08-03T19:36:58.424Z,99756.78
2022-08-03T19:39:29.050Z,99766.97
2022-08-03T19:42:11.007Z,99751.50
2022-08-03T19:44:53.486Z,99759.66
2022-08-03T19:47:42.664Z,99750.56
2022-08-03T19:50:13.888Z,99763.09
2022-08-03T19:52:43.984Z,99756.31
2022-08-03T19:55:12.517Z,99757.78
2022-08-03T19:57:45.639Z,99757.31
2022-08-03T20:00:14.103Z,99759.63
2022-08-03T20:02:43.085Z,99749.28
2022-08-03T20:05:14.891Z,99758.63
2022-08-03T20:07:48.281Z,99759.81
2022-08-03T20:10:18.273Z,99740.09
2022-08-03T20:12:52.563Z,99738.88
2022-08-03T20:15:31.047Z,99746.00
2022-08-03T20:17:59.754Z,99756.56
2022-08-03T20:20:37.799Z,99729.41
2022-08-03T20:23:25.857Z,99777.50
2022-08-03T20:26:14.925Z,99751.44
2022-08-03T20:32:10.758Z,99783.34
2022-08-03T20:34:39.664Z,99768.75
2022-08-03T20:37:07.291Z,99778.22
2022-08-03T20:39:42.404Z,99775.53
2022-08-03T20:42:22.644Z,99780.75
2022-08-03T20:45:05.549Z,99783.13
2022-08-03T20:47:50.685Z,99769.06
2022-08-03T20:50:20.097Z,99768.25
2022-08-03T20:55:47.954Z,99725.44
2022-08-03T20:58:36.122Z,99791.34
2022-08-03T21:01:14.194Z,99796.09
2022-08-03T21:03:55.433Z,99792.13
2022-08-03T21:06:27.672Z,99779.94
2022-08-03T21:09:04.004Z,99797.50
2022-08-03T21:11:47.579Z,99796.06
2022-08-03T21:12:56.080Z,99685.69
2022-08-03T21:12:58.868Z,99724.78
2022-08-03T21:14:25.433Z,99808.53
2022-08-03T21:16:53.359Z,99800.53
2022-08-03T21:19:22.993Z,99794.31
2022-08-03T21:21:50.714Z,99805.06
2022-08-03T21:24:19.806Z,99796.19
2022-08-03T21:26:48.719Z,99799.59
2022-08-03T21:29:16.953Z,99808.47
2022-08-03T21:31:44.184Z,99803.03
2022-08-03T21:34:12.790Z,99800.56
2022-08-03T21:36:40.188Z,99755.31
2022-08-03T21:39:09.940Z,99796.97
2022-08-03T21:41:40.389Z,99786.81
2022-08-03T21:44:07.999Z,99802.78
2022-08-03T21:46:37.476Z,99792.63
2022-08-03T21:50:04.247Z,99801.47
2022-08-03T21:51:59.196Z,99797.47
2022-08-03T21:54:33.943Z,99805.66
2022-08-03T21:57:05.133Z,99818.13
2022-08-03T21:59:37.251Z,99792.16
2022-08-03T22:02:05.018Z,99819.31
2022-08-03T22:04:42.746Z,99803.03
2022-08-03T22:07:24.689Z,99783.59
2022-08-03T22:09:52.398Z,99803.47
2022-08-03T22:12:24.497Z,99797.41
2022-08-03T22:15:00.390Z,99797.41
2022-08-03T22:17:56.030Z,99814.66
2022-08-03T22:20:24.826Z,99817.34
2022-08-03T22:22:59.491Z,99804.06
2022-08-03T22:25:30.959Z,99820.16
2022-08-03T22:28:17.135Z,99814.94
2022-08-03T22:30:44.220Z,99809.59
2022-08-03T22:33:14.651Z,99816.94
2022-08-03T22:35:48.730Z,99822.19
2022-08-03T22:38:17.413Z,99811.59
2022-08-03T22:40:47.514Z,99789.97
2022-08-03T22:43:14.450Z,99817.53
2022-08-03T22:46:11.253Z,99825.53
2022-08-03T22:48:40.926Z,99810.56
2022-08-03T22:51:11.978Z,99806.38
2022-08-03T22:53:39.715Z,99823.78
2022-08-03T22:56:07.195Z,99821.22
2022-08-03T22:58:34.363Z,99816.31
2022-08-03T23:01:08.629Z,99814.94
2022-08-03T23:04:01.063Z,99829.13
2022-08-03T23:06:35.764Z,99820.44
2022-08-03T23:09:09.815Z,99823.31
2022-08-03T23:11:45.728Z,99823.72
2022-08-03T23:14:17.704Z,99774.91
2022-08-03T23:16:46.518Z,99834.94
2022-08-03T23:19:25.365Z,99832.53
2022-08-03T23:22:02.251Z,99836.28
2022-08-03T23:24:36.046Z,99841.06
2022-08-03T23:27:05.975Z,99836.91
2022-08-03T23:29:42.919Z,99823.47
2022-08-03T23:32:13.161Z,99843.84
2022-08-03T23:35:00.203Z,99840.44
2022-08-03T23:37:27.809Z,99839.00
2022-08-03T23:39:57.456Z,99841.00
2022-08-03T23:42:25.373Z,99834.59
2022-08-03T23:44:59.476Z,99838.22
2022-08-03T23:47:46.922Z,99844.34
2022-08-03T23:50:15.589Z,99849.72
2022-08-03T23:52:52.847Z,99854.13
2022-08-03T23:55:29.158Z,99846.09
2022-08-03T23:58:04.186Z,99851.56
